Agua Dulce, Texas
Current Conditions -  °F | °C
As of 6:53 AM on Friday 31 Oct 2014 (Local Time) from KALI Reporting Station
Overcast Overcast  
Wind Chill: 68°   Ceiling: 9500
Heat Index: 68°   Visibility: 7mi
Dew Point: 67°   Wind: 6mph
Humidity: 96%   Direction: 270°W
Pressure: 30.09"   Gusts: NA
Location:  27.78°N, 97.91°W
Report Text: KALI 311153Z AUTO 27005KT 7SM FEW017 FEW070 OVC095 20/19 A3009 RMK AO2 LTG DSNT N AND NE SLP187 70041 T02000194 10211 20183 53011
Loading
Personal Weather Stations






























Interactive Weather Map
Tropical Storm Tracking
New forecast layout! Learn more

10-Day Weather Forecast

Advertisements
Track Severe Weather on mobile